createdAt,value
2023-12-26T00:00:26.534Z,89911.31
2023-12-26T00:02:55.474Z,89654.13
2023-12-26T00:05:24.261Z,89654.13
2023-12-26T00:07:52.812Z,89396.97
2023-12-26T00:10:21.425Z,88882.69
2023-12-26T00:12:51.313Z,89654.13
2023-12-26T00:15:20.209Z,89139.81
2023-12-26T00:17:47.747Z,88882.69
2023-12-26T00:20:16.350Z,88625.56
2023-12-26T00:22:44.758Z,88368.50
2023-12-26T00:25:13.330Z,87340.31
2023-12-26T00:27:42.610Z,86826.34
2023-12-26T00:30:13.343Z,86312.47
2023-12-26T00:32:41.960Z,85798.66
2023-12-26T00:35:10.567Z,86569.41
2023-12-26T00:37:39.391Z,87083.34
2023-12-26T00:40:13.697Z,86826.34
2023-12-26T00:42:42.287Z,86826.34
2023-12-26T00:45:14.443Z,88368.50
2023-12-26T00:47:43.129Z,89654.13
2023-12-26T00:50:13.547Z,90940.22
2023-12-26T00:52:42.081Z,91969.47
2023-12-26T00:55:11.025Z,93256.44
2023-12-26T00:57:39.485Z,94028.84
2023-12-26T01:00:09.412Z,94543.91
2023-12-26T01:02:39.593Z,95059.00
2023-12-26T01:05:08.671Z,96089.47
2023-12-26T01:07:37.127Z,96604.81
2023-12-26T01:10:06.646Z,96862.50
2023-12-26T01:12:35.235Z,97120.22
2023-12-26T01:15:04.035Z,98151.31
2023-12-26T01:17:32.670Z,97635.72
2023-12-26T01:20:03.946Z,97377.97
2023-12-26T01:22:35.142Z,97377.97
2023-12-26T01:25:03.695Z,97635.72
2023-12-26T01:27:31.375Z,97635.72
2023-12-26T01:30:01.224Z,97635.72
2023-12-26T01:32:30.041Z,98151.31
2023-12-26T01:34:58.445Z,98409.13
2023-12-26T01:37:28.521Z,98409.13
2023-12-26T01:39:57.293Z,98409.13
2023-12-26T01:42:25.755Z,98409.13
2023-12-26T01:44:54.385Z,98409.13
2023-12-26T01:47:24.394Z,98409.13
2023-12-26T01:49:52.961Z,98666.94
2023-12-26T01:52:22.872Z,98666.94
2023-12-26T01:54:52.733Z,98924.81
2023-12-26T01:57:21.296Z,99440.56
2023-12-26T01:59:50.156Z,99182.69
2023-12-26T02:02:20.796Z,99182.69
2023-12-26T02:04:49.428Z,99182.69
2023-12-26T02:07:17.925Z,99182.69
2023-12-26T02:09:46.815Z,99440.56
2023-12-26T02:12:17.342Z,99440.56
2023-12-26T02:14:46.286Z,99440.56
2023-12-26T02:17:21.553Z,99440.56
2023-12-26T02:19:50.222Z,99698.47
2023-12-26T02:22:18.903Z,99698.47
2023-12-26T02:24:49.131Z,99956.41
2023-12-26T02:27:20.326Z,99956.41
2023-12-26T02:29:50.452Z,100214.34
2023-12-26T02:32:21.004Z,100214.34
2023-12-26T02:34:51.451Z,100472.31
2023-12-26T02:37:20.275Z,100730.31
2023-12-26T02:39:51.692Z,100730.31
2023-12-26T02:42:20.713Z,100730.31
2023-12-26T02:44:49.419Z,100730.31
2023-12-26T02:47:17.876Z,100472.31
2023-12-26T02:49:46.382Z,99956.41
2023-12-26T02:52:14.818Z,99956.41
2023-12-26T02:54:43.256Z,99956.41
2023-12-26T02:57:14.170Z,99698.47
2023-12-26T02:59:42.741Z,99698.47
2023-12-26T03:02:11.121Z,99698.47
2023-12-26T03:04:39.561Z,99956.41
2023-12-26T03:07:08.060Z,100214.34
2023-12-26T03:09:36.447Z,100472.31
2023-12-26T03:12:05.223Z,100472.31
2023-12-26T03:14:35.053Z,100472.31
2023-12-26T03:17:03.543Z,100730.31
2023-12-26T03:19:32.362Z,100730.31
2023-12-26T03:22:00.776Z,100730.31
2023-12-26T03:24:29.353Z,100730.31
2023-12-26T03:26:57.720Z,100988.31
2023-12-26T03:29:26.099Z,100988.31
2023-12-26T03:31:55.973Z,100730.31
2023-12-26T03:34:24.467Z,100988.31
2023-12-26T03:36:52.909Z,100730.31
2023-12-26T03:39:22.087Z,100988.31
2023-12-26T03:41:51.158Z,100730.31
2023-12-26T03:44:20.485Z,100988.31
2023-12-26T03:46:48.972Z,100988.31
2023-12-26T03:49:18.895Z,100988.31
2023-12-26T03:51:49.143Z,100988.31
2023-12-26T03:54:19.610Z,100988.31
2023-12-26T03:56:48.075Z,100988.31
2023-12-26T03:59:17.806Z,101246.34
2023-12-26T04:01:46.525Z,100988.31
2023-12-26T04:04:15.170Z,100730.31
2023-12-26T04:06:45.199Z,100214.34
2023-12-26T04:09:14.481Z,99956.41
2023-12-26T04:11:43.606Z,99698.47
2023-12-26T04:14:12.034Z,99440.56
2023-12-26T04:16:43.093Z,98409.13
2023-12-26T04:19:12.234Z,97893.50
2023-12-26T04:21:40.705Z,97377.97
2023-12-26T04:24:10.683Z,97377.97
2023-12-26T04:26:39.115Z,96604.81
2023-12-26T04:29:07.550Z,95316.59
2023-12-26T04:31:35.955Z,93771.38
2023-12-26T04:34:04.500Z,92226.81
2023-12-26T04:36:36.316Z,91712.13
2023-12-26T04:39:06.140Z,91969.47
2023-12-26T04:41:36.179Z,91969.47
2023-12-26T04:44:06.137Z,93256.44
2023-12-26T04:46:34.881Z,94286.38
2023-12-26T04:49:03.758Z,95059.00
2023-12-26T04:51:32.290Z,95831.81
2023-12-26T04:54:01.491Z,96604.81
2023-12-26T04:56:29.873Z,96862.50
2023-12-26T04:58:59.889Z,97377.97
2023-12-26T05:01:28.493Z,97635.72
2023-12-26T05:03:57.051Z,97635.72
2023-12-26T05:06:25.765Z,97635.72
2023-12-26T05:08:54.159Z,97635.72
2023-12-26T05:11:24.717Z,97377.97
2023-12-26T05:13:53.548Z,97377.97
2023-12-26T05:16:23.534Z,97635.72
2023-12-26T05:18:53.366Z,97893.50
2023-12-26T05:21:23.459Z,98409.13
2023-12-26T05:23:52.674Z,98151.31
2023-12-26T05:26:21.159Z,98151.31
2023-12-26T05:28:51.162Z,98409.13
2023-12-26T05:31:21.129Z,98409.13
2023-12-26T05:33:51.709Z,98409.13
2023-12-26T05:36:21.419Z,98409.13
2023-12-26T05:38:50.244Z,98151.31
2023-12-26T05:41:18.992Z,98151.31
2023-12-26T05:43:47.512Z,98151.31
2023-12-26T05:46:16.054Z,97893.50
2023-12-26T05:48:44.974Z,97120.22
2023-12-26T05:51:15.293Z,95574.19
2023-12-26T05:53:44.232Z,94543.91
2023-12-26T05:56:12.760Z,93513.91
2023-12-26T05:58:42.231Z,91969.47
2023-12-26T06:01:14.018Z,90682.97
2023-12-26T06:03:42.546Z,90682.97
2023-12-26T06:06:13.124Z,89911.31
2023-12-26T06:08:43.409Z,89139.81
2023-12-26T06:11:12.007Z,87083.34
2023-12-26T06:13:41.720Z,86055.56
2023-12-26T06:16:10.294Z,85028.06
2023-12-26T06:18:39.855Z,84514.44
2023-12-26T06:21:08.358Z,83487.44
2023-12-26T06:23:36.811Z,83230.72
2023-12-26T06:26:08.628Z,82717.38
2023-12-26T06:28:38.242Z,81947.50
2023-12-26T06:31:06.713Z,82717.38
2023-12-26T06:33:35.362Z,82460.72
2023-12-26T06:36:04.069Z,81434.31
2023-12-26T06:38:33.214Z,79126.03
2023-12-26T06:41:03.005Z,78100.63
2023-12-26T06:43:33.034Z,76563.09
2023-12-26T06:46:04.924Z,76819.28
2023-12-26T06:48:34.567Z,76819.28
2023-12-26T06:51:06.245Z,76563.09
2023-12-26T06:53:35.246Z,74770.16
2023-12-26T06:56:06.571Z,74258.06
2023-12-26T06:58:36.542Z,72466.34
2023-12-26T07:01:05.403Z,72722.25
2023-12-26T07:03:34.437Z,74258.06
2023-12-26T07:06:02.944Z,73746.06
2023-12-26T07:08:31.390Z,74002.03
2023-12-26T07:10:59.796Z,73746.06
2023-12-26T07:13:28.213Z,74770.16
2023-12-26T07:15:58.059Z,74770.16
2023-12-26T07:18:26.621Z,76050.72
2023-12-26T07:20:55.086Z,77075.53
2023-12-26T07:23:23.573Z,77075.53
2023-12-26T07:25:51.960Z,77844.31
2023-12-26T07:28:20.370Z,77331.78
2023-12-26T07:30:48.821Z,76306.91
2023-12-26T07:33:18.767Z,74002.03
2023-12-26T07:35:47.463Z,72466.34
2023-12-26T07:38:15.890Z,71442.94
2023-12-26T07:40:44.494Z,70397.84
2023-12-26T07:43:13.627Z,68885.72
2023-12-26T07:45:42.028Z,66911.19
2023-12-26T07:48:12.143Z,64650.53
2023-12-26T07:50:42.622Z,65376.66
2023-12-26T07:53:11.198Z,63657.38
2023-12-26T07:55:39.624Z,63796.97
2023-12-26T07:58:08.939Z,63794.97
2023-12-26T08:00:37.496Z,64782.19
2023-12-26T08:03:06.182Z,63775.03
2023-12-26T08:05:34.867Z,64223.72
2023-12-26T08:08:05.064Z,63884.72
2023-12-26T08:10:33.720Z,62700.38
2023-12-26T08:13:02.244Z,62849.91
2023-12-26T08:15:31.256Z,62517.00
2023-12-26T08:17:59.951Z,62287.78
2023-12-26T08:20:28.713Z,62530.94
2023-12-26T08:22:57.350Z,62050.59
2023-12-26T08:25:27.472Z,61347.09
2023-12-26T08:27:55.958Z,60325.03
2023-12-26T08:30:24.452Z,60239.38
2023-12-26T08:32:53.447Z,60404.69
2023-12-26T08:35:21.986Z,60870.88
2023-12-26T08:37:50.587Z,61600.19
2023-12-26T08:40:20.248Z,62405.38
2023-12-26T08:42:50.297Z,61669.94
2023-12-26T08:45:19.071Z,61498.53
2023-12-26T08:47:47.937Z,60368.84
2023-12-26T08:50:16.865Z,60420.63
2023-12-26T08:52:45.460Z,59635.84
2023-12-26T08:55:14.778Z,58902.97
2023-12-26T08:57:43.264Z,59631.84
2023-12-26T09:00:15.559Z,59396.84
2023-12-26T09:02:52.877Z,58962.72
2023-12-26T09:05:28.934Z,58441.03
2023-12-26T09:07:57.712Z,58640.16
2023-12-26T09:10:26.326Z,58084.69
2023-12-26T09:12:55.204Z,58670.00
2023-12-26T09:15:25.259Z,58755.63
2023-12-26T09:17:53.952Z,59233.53
2023-12-26T09:20:22.652Z,59719.47
2023-12-26T09:22:53.321Z,59954.50
2023-12-26T09:25:22.005Z,60536.19
2023-12-26T09:27:50.540Z,60715.47
2023-12-26T09:30:19.756Z,60835.03
2023-12-26T09:32:50.336Z,61026.28
2023-12-26T09:35:19.108Z,60775.25
2023-12-26T09:37:47.641Z,61024.31
2023-12-26T09:40:16.521Z,60464.47
2023-12-26T09:42:45.235Z,60225.41
2023-12-26T09:45:14.511Z,60892.81
2023-12-26T09:47:44.524Z,61273.38
2023-12-26T09:50:14.847Z,61121.94
2023-12-26T09:52:49.176Z,60444.53
2023-12-26T09:55:18.456Z,59691.59
2023-12-26T09:57:47.119Z,59669.69
2023-12-26T10:00:16.488Z,58715.81
2023-12-26T10:02:45.326Z,59400.81
2023-12-26T10:05:15.547Z,58433.09
2023-12-26T10:07:44.915Z,57467.59
2023-12-26T10:10:20.894Z,57023.78
2023-12-26T10:12:49.910Z,57139.22
2023-12-26T10:15:19.904Z,56878.50
2023-12-26T10:17:49.499Z,57137.22
2023-12-26T10:20:19.957Z,57019.81
2023-12-26T10:22:48.744Z,56858.59
2023-12-26T10:25:17.632Z,56615.81
2023-12-26T10:27:56.222Z,56172.13
2023-12-26T10:30:27.249Z,56379.03
2023-12-26T10:33:03.434Z,56199.97
2023-12-26T10:35:35.074Z,56269.59
2023-12-26T10:38:02.954Z,56148.22
2023-12-26T10:40:31.447Z,56164.16
2023-12-26T10:43:01.643Z,56110.44
2023-12-26T10:45:32.244Z,55897.56
2023-12-26T10:48:04.243Z,55911.47
2023-12-26T10:50:35.219Z,55871.69
2023-12-26T10:53:18.139Z,55688.66
2023-12-26T10:55:48.490Z,55963.22
2023-12-26T10:58:26.003Z,55758.28
2023-12-26T11:02:00.481Z,55827.91
2023-12-26T11:05:48.780Z,55527.53
2023-12-26T11:09:30.821Z,55525.53
2023-12-26T11:13:12.433Z,55054.13
2023-12-26T11:16:54.525Z,54964.63
2023-12-26T11:20:36.258Z,54944.72
2023-12-26T11:24:18.179Z,54759.78
2023-12-26T11:28:00.536Z,54775.69
2023-12-26T11:31:42.080Z,54658.34
2023-12-26T11:35:24.459Z,54678.22
2023-12-26T11:39:07.328Z,54668.28
2023-12-26T11:42:49.764Z,54473.41
2023-12-26T11:46:31.757Z,54397.81
2023-12-26T11:50:13.653Z,54346.13
2023-12-26T11:53:55.195Z,54316.28
2023-12-26T11:57:37.584Z,54346.13
2023-12-26T12:01:19.610Z,54334.19
2023-12-26T12:05:01.752Z,54346.13
2023-12-26T12:08:43.484Z,54342.16
2023-12-26T12:12:26.084Z,54222.84
2023-12-26T12:16:08.645Z,54240.72
2023-12-26T12:19:50.896Z,54260.63
2023-12-26T12:23:33.677Z,54131.38
2023-12-26T12:27:16.019Z,54171.13
2023-12-26T12:30:58.370Z,54171.13
2023-12-26T12:34:40.712Z,54033.94
2023-12-26T12:38:23.114Z,54027.97
2023-12-26T12:42:05.485Z,54075.69
2023-12-26T12:45:47.731Z,54051.81
2023-12-26T12:49:30.378Z,53872.88
2023-12-26T12:53:13.201Z,53948.44
2023-12-26T12:56:55.457Z,53914.63
2023-12-26T13:00:37.729Z,53898.72
2023-12-26T13:04:20.328Z,53860.94
2023-12-26T13:08:02.890Z,53799.31
2023-12-26T13:11:45.444Z,53805.28
2023-12-26T13:15:27.799Z,53771.47
2023-12-26T13:19:10.317Z,53787.38
2023-12-26T13:22:52.914Z,53783.41
2023-12-26T13:26:35.136Z,53789.38
2023-12-26T13:30:16.890Z,53785.41
2023-12-26T13:33:59.625Z,53765.50
2023-12-26T13:37:42.141Z,53749.59
2023-12-26T13:41:23.813Z,53761.53
2023-12-26T13:45:05.633Z,53761.53
2023-12-26T13:48:48.203Z,53801.31
2023-12-26T13:52:14.260Z,53779.44
2023-12-26T13:55:19.952Z,53823.16
2023-12-26T13:58:25.719Z,53801.31
2023-12-26T14:01:31.551Z,53805.28
2023-12-26T14:04:40.381Z,53856.97
2023-12-26T14:07:46.505Z,53821.19
2023-12-26T14:10:52.478Z,53880.84
2023-12-26T14:13:58.122Z,53880.84
2023-12-26T14:17:04.326Z,53856.97
2023-12-26T14:20:11.461Z,53878.84
2023-12-26T14:23:17.547Z,53906.69
2023-12-26T14:26:23.309Z,53904.69
2023-12-26T14:29:29.373Z,53898.72
2023-12-26T14:32:35.105Z,53892.75
2023-12-26T14:35:40.927Z,53908.66
2023-12-26T14:38:46.894Z,53916.63
2023-12-26T14:41:52.865Z,53880.84
2023-12-26T14:44:58.931Z,53912.66
2023-12-26T14:48:04.996Z,53930.53
2023-12-26T14:51:10.898Z,53880.84
2023-12-26T14:54:16.829Z,53892.75
2023-12-26T14:57:41.672Z,53894.75
2023-12-26T15:00:47.505Z,53868.91
2023-12-26T15:03:17.823Z,53928.56
2023-12-26T15:05:46.587Z,53906.69
2023-12-26T15:08:15.121Z,53924.56
2023-12-26T15:10:43.665Z,53914.63
2023-12-26T15:13:12.477Z,53978.25
2023-12-26T15:15:41.324Z,53970.31
2023-12-26T15:18:11.329Z,54012.06
2023-12-26T15:20:42.090Z,54022.00
2023-12-26T15:23:10.655Z,53988.19
2023-12-26T15:25:39.301Z,54047.84
2023-12-26T15:28:08.189Z,54024.00
2023-12-26T15:30:36.849Z,54069.72
2023-12-26T15:33:06.652Z,54020.00
2023-12-26T15:35:35.294Z,54020.00
2023-12-26T15:38:05.525Z,54077.69
2023-12-26T15:40:34.147Z,54081.66
2023-12-26T15:43:02.690Z,54079.66
2023-12-26T15:45:31.427Z,54109.50
2023-12-26T15:48:00.180Z,54087.63
2023-12-26T15:50:28.862Z,54129.38
2023-12-26T15:52:57.922Z,54111.47
2023-12-26T15:55:28.051Z,54129.38
2023-12-26T15:57:56.768Z,54079.66
2023-12-26T16:00:25.468Z,54123.41
2023-12-26T16:02:54.079Z,54161.19
2023-12-26T16:05:22.727Z,54135.34
2023-12-26T16:07:51.194Z,54123.41
2023-12-26T16:10:21.591Z,54157.22
2023-12-26T16:12:51.904Z,54141.31
2023-12-26T16:15:21.514Z,54147.28
2023-12-26T16:17:50.277Z,54143.28
2023-12-26T16:20:18.754Z,54139.31
2023-12-26T16:22:47.363Z,54155.22
2023-12-26T16:25:15.892Z,54139.31
2023-12-26T16:27:44.432Z,54155.22
2023-12-26T16:30:15.242Z,54095.56
2023-12-26T16:32:44.041Z,54071.72
2023-12-26T16:35:12.682Z,54047.84
2023-12-26T16:37:41.291Z,54071.72
2023-12-26T16:40:11.462Z,54039.91
2023-12-26T16:42:40.383Z,54031.94
2023-12-26T16:45:09.566Z,54047.84
2023-12-26T16:47:41.251Z,54039.91
2023-12-26T16:50:10.246Z,54039.91
2023-12-26T16:52:38.733Z,54025.97
2023-12-26T16:55:08.132Z,54085.63
2023-12-26T16:57:36.629Z,54117.44
2023-12-26T17:00:06.315Z,54149.25
2023-12-26T17:02:35.243Z,54149.25
2023-12-26T17:05:07.596Z,54171.13
2023-12-26T17:07:36.104Z,54228.81
2023-12-26T17:10:05.031Z,54292.44
2023-12-26T17:12:33.508Z,54342.16
2023-12-26T17:15:01.992Z,54393.84
2023-12-26T17:17:32.881Z,54379.94
2023-12-26T17:20:01.554Z,54401.81
2023-12-26T17:22:31.655Z,54421.69
2023-12-26T17:25:00.299Z,54433.63
2023-12-26T17:27:28.871Z,54429.66
2023-12-26T17:29:57.490Z,54471.41
2023-12-26T17:32:26.138Z,54501.22
2023-12-26T17:34:55.338Z,54560.91
2023-12-26T17:37:23.848Z,54554.94
2023-12-26T17:39:53.820Z,54654.38
2023-12-26T17:42:22.383Z,54650.38
2023-12-26T17:44:50.930Z,54833.34
2023-12-26T17:47:19.515Z,54767.72
2023-12-26T17:49:48.091Z,54779.66
2023-12-26T17:52:16.892Z,54851.25
2023-12-26T17:54:45.674Z,54839.31
2023-12-26T17:57:16.028Z,54936.78
2023-12-26T17:59:44.684Z,54990.47
2023-12-26T18:02:13.656Z,54986.50
2023-12-26T18:04:42.218Z,55064.06
2023-12-26T18:07:10.982Z,55119.75
2023-12-26T18:09:39.651Z,55179.44
2023-12-26T18:12:09.726Z,55173.47
2023-12-26T18:14:39.763Z,55177.44
2023-12-26T18:17:08.239Z,55159.53
2023-12-26T18:19:36.823Z,55171.47
2023-12-26T18:22:05.639Z,55193.34
2023-12-26T18:24:34.281Z,55304.75
2023-12-26T18:27:02.860Z,55428.06
2023-12-26T18:29:31.427Z,55465.88
2023-12-26T18:32:01.361Z,55539.47
2023-12-26T18:34:34.074Z,55658.81
2023-12-26T18:37:05.211Z,55845.81
2023-12-26T18:39:34.257Z,55929.38
2023-12-26T18:42:03.085Z,56176.09
2023-12-26T18:44:31.603Z,56152.22
2023-12-26T18:47:01.469Z,56060.69
2023-12-26T18:49:30.248Z,56128.34
2023-12-26T18:51:58.972Z,56044.78
2023-12-26T18:54:27.652Z,55802.06
2023-12-26T18:56:56.176Z,55475.81
2023-12-26T18:59:24.810Z,55589.19
2023-12-26T19:01:55.910Z,55320.66
2023-12-26T19:04:26.135Z,55237.13
2023-12-26T19:06:54.887Z,55133.69
2023-12-26T19:09:23.633Z,55179.44
2023-12-26T19:11:52.229Z,55012.34
2023-12-26T19:14:21.048Z,55052.13
2023-12-26T19:16:49.681Z,55129.69
2023-12-26T19:19:19.296Z,55064.06
2023-12-26T19:21:49.490Z,54956.66
2023-12-26T19:24:18.738Z,54982.53
2023-12-26T19:26:51.988Z,54889.03
2023-12-26T19:29:20.596Z,54803.53
2023-12-26T19:31:49.258Z,54815.47
2023-12-26T19:34:18.529Z,54741.88
2023-12-26T19:36:48.837Z,54831.38
2023-12-26T19:39:17.441Z,54775.69
2023-12-26T19:41:46.170Z,54696.13
2023-12-26T19:44:18.218Z,54592.72
2023-12-26T19:46:47.583Z,54644.41
2023-12-26T19:49:16.347Z,54620.56
2023-12-26T19:51:45.025Z,54582.78
2023-12-26T19:54:15.199Z,54568.84
2023-12-26T19:56:43.952Z,54519.13
2023-12-26T19:59:14.288Z,54443.56
2023-12-26T20:01:43.084Z,54419.69
2023-12-26T20:04:11.881Z,54447.53
2023-12-26T20:06:45.096Z,54441.56
2023-12-26T20:09:19.800Z,54425.66
2023-12-26T20:11:49.238Z,54451.53
2023-12-26T20:14:18.817Z,54465.44
2023-12-26T20:16:49.223Z,54409.75
2023-12-26T20:19:19.545Z,54473.41
2023-12-26T20:21:49.331Z,54453.50
2023-12-26T20:24:19.442Z,54537.03
2023-12-26T20:26:49.925Z,54566.84
2023-12-26T20:29:20.922Z,54584.75
2023-12-26T20:31:51.912Z,54628.50
2023-12-26T20:34:21.236Z,54646.41
2023-12-26T20:36:50.830Z,54749.81
2023-12-26T20:39:22.044Z,54805.50
2023-12-26T20:41:52.934Z,54952.69
2023-12-26T20:44:21.630Z,54970.59
2023-12-26T20:46:50.767Z,55058.09
2023-12-26T20:49:20.248Z,55173.47
2023-12-26T20:51:49.164Z,55270.94
2023-12-26T20:54:18.768Z,55266.94
2023-12-26T20:56:49.884Z,55213.25
2023-12-26T20:59:20.530Z,55308.72
2023-12-26T21:01:49.134Z,55274.91
2023-12-26T21:04:19.457Z,55366.41
2023-12-26T21:06:48.952Z,55201.31
2023-12-26T21:09:19.124Z,55376.34
2023-12-26T21:11:49.007Z,55324.63
2023-12-26T21:14:18.273Z,55231.16
2023-12-26T21:16:47.126Z,55268.94
2023-12-26T21:19:15.959Z,55579.25
2023-12-26T21:21:44.552Z,55623.03
2023-12-26T21:24:13.334Z,55726.47
2023-12-26T21:26:42.180Z,55750.34
2023-12-26T21:29:12.264Z,55869.69
2023-12-26T21:31:41.850Z,56148.22
2023-12-26T21:34:10.662Z,55911.47
2023-12-26T21:36:39.555Z,55855.78
2023-12-26T21:39:09.376Z,56108.44
2023-12-26T21:41:42.805Z,56311.38
2023-12-26T21:44:15.218Z,56593.94
2023-12-26T21:46:46.821Z,56484.50
2023-12-26T21:49:15.881Z,56743.19
2023-12-26T21:51:44.466Z,57055.63
2023-12-26T21:54:13.287Z,57527.31
2023-12-26T21:56:44.155Z,57959.28
2023-12-26T21:59:14.603Z,58918.91
2023-12-26T22:01:45.950Z,58901.00
2023-12-26T22:04:15.521Z,58542.59
2023-12-26T22:06:47.535Z,58437.06
2023-12-26T22:09:17.834Z,58582.41
2023-12-26T22:11:46.872Z,60127.81
2023-12-26T22:14:17.249Z,59492.44
2023-12-26T22:16:46.675Z,59480.50
2023-12-26T22:19:15.513Z,58755.63
2023-12-26T22:21:45.284Z,58604.31
2023-12-26T22:24:13.888Z,58456.97
2023-12-26T22:26:43.614Z,58855.19
2023-12-26T22:29:12.572Z,59235.53
2023-12-26T22:31:42.468Z,59922.66
2023-12-26T22:34:13.528Z,60293.16
2023-12-26T22:36:42.706Z,60193.53
2023-12-26T22:39:14.969Z,60016.25
2023-12-26T22:41:43.621Z,61309.25
2023-12-26T22:44:15.653Z,61697.81
2023-12-26T22:46:45.831Z,62309.69
2023-12-26T22:49:14.519Z,62979.47
2023-12-26T22:51:43.310Z,64183.84
2023-12-26T22:54:11.931Z,63868.75
2023-12-26T22:56:41.635Z,62582.78
2023-12-26T22:59:12.449Z,64177.84
2023-12-26T23:01:46.879Z,64881.94
2023-12-26T23:04:15.826Z,64371.31
2023-12-26T23:06:44.905Z,64860.00
2023-12-26T23:09:15.408Z,65274.91
2023-12-26T23:11:44.150Z,64618.63
2023-12-26T23:14:13.226Z,64335.41
2023-12-26T23:16:42.743Z,65510.31
2023-12-26T23:19:13.683Z,68071.00
2023-12-26T23:21:43.031Z,68985.56
2023-12-26T23:24:11.520Z,68769.88
2023-12-26T23:26:43.068Z,67999.13
2023-12-26T23:29:13.834Z,68909.69
2023-12-26T23:31:42.802Z,69397.00
2023-12-26T23:34:13.379Z,69025.50
2023-12-26T23:36:41.830Z,67793.47
2023-12-26T23:39:12.305Z,66821.38
2023-12-26T23:41:41.627Z,65171.19
2023-12-26T23:44:10.301Z,64431.16
2023-12-26T23:46:39.661Z,64602.69
2023-12-26T23:49:08.350Z,63218.72
2023-12-26T23:51:38.760Z,62919.69
2023-12-26T23:54:07.311Z,61227.53
2023-12-26T23:56:36.414Z,61586.22
2023-12-26T23:59:04.949Z,60637.78
